Time;durP1;ratioP1;P1;durP2;ratioP2;P2;SDS_P1;SDS_P2;PMS_P1;PMS_P2;Temp;Humidity;BMP_temperature;BMP_pressure;BME280_temperature;BME280_humidity;BME280_pressure;Samples;Min_cycle;Max_cycle;Signal;HPM_P1;HPM_P2
2023/09/17 00:01:27;;;;;;;7.97;4.28;;;15.90;99.90;;;;;;5066391;28;20037;-64
2023/09/17 00:03:54;;;;;;;17.10;4.25;;;15.90;99.90;;;;;;5071481;28;20072;-63
2023/09/17 00:06:21;;;;;;;;;;;16.00;99.90;;;;;;5071808;28;20054;-63
2023/09/17 00:08:48;;;;;;;6.50;4.32;;;15.90;99.90;;;;;;5065558;28;20008;-64
2023/09/17 00:11:15;;;;;;;9.50;4.53;;;15.90;99.90;;;;;;5070795;28;20037;-63
2023/09/17 00:13:42;;;;;;;4.85;4.15;;;15.90;99.90;;;;;;5071241;28;20032;-63
2023/09/17 00:16:10;;;;;;;6.22;4.40;;;15.90;99.90;;;;;;5071601;28;20059;-64
2023/09/17 00:18:37;;;;;;;7.28;4.18;;;15.80;99.90;;;;;;5069793;28;20041;-63
2023/09/17 00:21:06;;;;;;;9.77;5.03;;;15.80;99.90;;;;;;5061339;28;20094;-63
2023/09/17 00:23:33;;;;;;;7.45;4.40;;;15.70;99.90;;;;;;5071092;28;20063;-63
2023/09/17 00:25:59;;;;;;;9.32;4.75;;;15.70;99.90;;;;;;5071127;28;20039;-64
2023/09/17 00:28:26;;;;;;;8.80;4.47;;;15.60;99.90;;;;;;5071245;28;20039;-64
2023/09/17 00:30:54;;;;;;;9.05;4.05;;;15.60;99.90;;;;;;5067867;28;20252;-63
2023/09/17 00:33:21;;;;;;;6.22;4.55;;;15.50;99.90;;;;;;5068280;28;20055;-63
2023/09/17 00:35:48;;;;;;;7.82;3.75;;;15.40;99.90;;;;;;5071210;28;20036;-64
2023/09/17 00:38:15;;;;;;;5.15;3.70;;;15.30;99.90;;;;;;5060975;28;20509;-63
2023/09/17 00:40:42;;;;;;;8.45;3.97;;;15.30;99.90;;;;;;5071078;28;20040;-63
2023/09/17 00:43:09;;;;;;;9.77;4.43;;;15.20;99.90;;;;;;5069340;28;20477;-63
2023/09/17 00:45:36;;;;;;;11.93;5.28;;;15.10;99.90;;;;;;5071335;28;20032;-63
2023/09/17 00:48:04;;;;;;;8.77;5.15;;;15.10;99.90;;;;;;5068267;28;20501;-64
2023/09/17 00:50:31;;;;;;;11.85;4.63;;;15.10;99.90;;;;;;5054684;28;20041;-63
2023/09/17 00:53:00;;;;;;;7.90;4.68;;;15.10;99.90;;;;;;5068996;28;20677;-64
2023/09/17 00:55:29;;;;;;;8.18;4.45;;;15.20;99.90;;;;;;5060796;28;20136;-63
2023/09/17 00:57:58;;;;;;;7.53;4.55;;;15.10;99.90;;;;;;5067858;28;20037;-63
2023/09/17 01:00:25;;;;;;;8.52;4.10;;;15.10;99.90;;;;;;5063011;28;20697;-63
2023/09/17 01:02:53;;;;;;;;;;;15.10;99.90;;;;;;5070661;28;20047;-63
2023/09/17 01:05:21;;;;;;;7.30;3.90;;;15.10;99.90;;;;;;5064317;28;19979;-63
2023/09/17 01:07:49;;;;;;;7.47;4.25;;;15.00;99.90;;;;;;5069309;28;20282;-63
2023/09/17 01:10:16;;;;;;;7.13;4.18;;;15.00;99.90;;;;;;5058049;28;20558;-63
2023/09/17 01:12:43;;;;;;;6.88;4.68;;;15.00;99.90;;;;;;5062920;28;20047;-64
2023/09/17 01:15:10;;;;;;;6.45;4.25;;;15.00;99.90;;;;;;5068618;28;20135;-63
2023/09/17 01:17:37;;;;;;;8.05;4.70;;;15.00;99.90;;;;;;5063974;28;20051;-63
2023/09/17 01:20:24;;;;;;;6.68;4.47;;;14.90;99.90;;;;;;5068819;28;20094;-64
2023/09/17 01:22:56;;;;;;;5.32;4.45;;;15.00;99.90;;;;;;5070568;28;20039;-64
2023/09/17 01:26:03;;;;;;;6.70;4.68;;;15.00;99.90;;;;;;5056265;28;20071;-63
2023/09/17 01:28:31;;;;;;;8.07;5.05;;;15.00;99.90;;;;;;5068998;28;20067;-63
2023/09/17 01:30:58;;;;;;;7.82;4.80;;;15.00;99.90;;;;;;5060952;28;20151;-63
2023/09/17 01:33:25;;;;;;;6.82;4.65;;;15.00;99.90;;;;;;5073038;28;20485;-63
2023/09/17 01:36:33;;;;;;;6.18;4.13;;;15.00;99.90;;;;;;5065211;28;20048;-63
2023/09/17 01:39:10;;;;;;;5.85;4.47;;;15.10;99.90;;;;;;5009117;28;20040;-63
2023/09/17 01:41:40;;;;;;;7.68;4.25;;;15.10;99.90;;;;;;5054909;28;20064;-63
2023/09/17 01:44:08;;;;;;;8.88;4.45;;;15.00;99.90;;;;;;5069171;28;20059;-63
2023/09/17 01:46:37;;;;;;;7.18;4.50;;;15.00;99.90;;;;;;5068048;28;20033;-63
2023/09/17 01:49:05;;;;;;;8.98;4.03;;;14.90;99.90;;;;;;5073803;28;20052;-63
2023/09/17 01:51:32;;;;;;;9.13;4.80;;;14.90;99.90;;;;;;5073010;28;20392;-64
2023/09/17 01:54:00;;;;;;;6.93;4.43;;;14.90;99.90;;;;;;5074271;28;20343;-64
2023/09/17 01:56:26;;;;;;;6.95;4.78;;;14.90;99.90;;;;;;5069169;28;20036;-64
2023/09/17 01:58:53;;;;;;;6.10;4.35;;;14.90;99.90;;;;;;5072383;28;20484;-64
2023/09/17 02:01:20;;;;;;;6.30;4.38;;;14.90;99.90;;;;;;5063341;28;20041;-64
2023/09/17 02:03:48;;;;;;;7.50;4.60;;;14.80;99.90;;;;;;5072424;28;20054;-64
2023/09/17 02:06:16;;;;;;;5.90;4.28;;;14.80;99.90;;;;;;5073257;28;20047;-63
2023/09/17 02:08:42;;;;;;;7.30;4.63;;;14.70;99.90;;;;;;5071119;28;20033;-63
2023/09/17 02:11:09;;;;;;;7.28;4.45;;;14.80;99.90;;;;;;5072003;28;20044;-63
2023/09/17 02:13:36;;;;;;;6.68;5.63;;;14.70;99.90;;;;;;5072348;28;20037;-63
2023/09/17 02:16:03;;;;;;;6.28;4.70;;;14.80;99.90;;;;;;5060240;28;20127;-63
2023/09/17 02:18:30;;;;;;;8.02;4.68;;;14.80;99.90;;;;;;5059110;28;20523;-63
2023/09/17 02:20:56;;;;;;;9.38;4.82;;;14.70;99.90;;;;;;5062763;28;20127;-63
2023/09/17 02:23:23;;;;;;;9.68;5.72;;;14.70;99.90;;;;;;5062730;28;20047;-63
2023/09/17 02:25:50;;;;;;;7.55;4.68;;;14.70;99.90;;;;;;5063690;28;20036;-64
2023/09/17 02:28:17;;;;;;;10.13;4.90;;;14.70;99.90;;;;;;5071778;28;20055;-63
2023/09/17 02:30:44;;;;;;;6.05;4.95;;;14.70;99.90;;;;;;5063114;28;20037;-63
2023/09/17 02:33:11;;;;;;;5.65;4.43;;;14.70;99.90;;;;;;5060269;28;20041;-63
2023/09/17 02:35:38;;;;;;;5.82;4.85;;;14.70;99.90;;;;;;5067627;28;20464;-64
2023/09/17 02:38:04;;;;;;;7.22;4.25;;;14.70;99.90;;;;;;5069471;28;20049;-64
2023/09/17 02:40:31;;;;;;;6.75;4.47;;;14.70;99.90;;;;;;5065186;28;20050;-64
2023/09/17 02:42:58;;;;;;;8.43;5.00;;;14.60;99.90;;;;;;5071491;28;20075;-63
2023/09/17 02:45:25;;;;;;;9.02;4.63;;;14.50;99.90;;;;;;5072470;28;20397;-63
2023/09/17 02:47:52;;;;;;;6.63;5.13;;;14.50;99.90;;;;;;5066752;28;20068;-63
2023/09/17 02:50:19;;;;;;;7.82;5.38;;;14.50;99.90;;;;;;5070651;28;20044;-63
2023/09/17 02:52:46;;;;;;;7.18;5.03;;;14.50;99.90;;;;;;5071049;28;20052;-63
2023/09/17 02:55:13;;;;;;;9.07;4.72;;;14.50;99.90;;;;;;5065619;28;20126;-63
2023/09/17 02:57:40;;;;;;;7.68;4.95;;;14.50;99.90;;;;;;5071416;28;20047;-63
2023/09/17 03:00:08;;;;;;;8.30;5.20;;;14.50;99.90;;;;;;5062736;28;20508;-63
2023/09/17 03:02:38;;;;;;;7.38;4.85;;;14.40;99.90;;;;;;5054768;28;20045;-64
2023/09/17 03:05:09;;;;;;;7.20;4.70;;;14.40;99.90;;;;;;5070010;28;20041;-63
2023/09/17 03:07:36;;;;;;;6.97;4.95;;;14.40;99.90;;;;;;5072702;28;20052;-64
2023/09/17 03:10:10;;;;;;;13.48;5.70;;;14.40;99.90;;;;;;5062228;28;20127;-63
2023/09/17 03:12:41;;;;;;;6.22;4.93;;;14.40;99.90;;;;;;5067187;28;20432;-63
2023/09/17 03:15:08;;;;;;;7.30;5.10;;;14.40;99.90;;;;;;5067097;28;20041;-63
2023/09/17 03:17:37;;;;;;;6.82;4.90;;;14.40;99.90;;;;;;5061572;28;20086;-63
2023/09/17 03:20:13;;;;;;;10.50;5.18;;;14.50;99.90;;;;;;5070716;28;20090;-63
2023/09/17 03:22:41;;;;;;;9.98;5.05;;;14.40;99.90;;;;;;5062899;28;20055;-63
2023/09/17 03:25:08;;;;;;;7.53;4.95;;;14.40;99.90;;;;;;5070722;28;20052;-63
2023/09/17 03:27:35;;;;;;;7.93;3.92;;;14.30;99.90;;;;;;5063557;28;20436;-63
2023/09/17 03:30:04;;;;;;;;;;;14.30;99.90;;;;;;5062764;28;20041;-63
2023/09/17 03:32:32;;;;;;;8.65;4.28;;;14.20;99.90;;;;;;5063883;28;19921;-63
2023/09/17 03:35:01;;;;;;;8.82;4.20;;;14.10;99.90;;;;;;5063419;28;20036;-63
2023/09/17 03:37:30;;;;;;;5.57;4.25;;;14.10;99.90;;;;;;5063484;28;20052;-64
2023/09/17 03:40:14;;;;;;;8.32;4.40;;;14.10;99.90;;;;;;5066672;28;20485;-63
2023/09/17 03:42:43;;;;;;;7.50;4.55;;;14.00;99.90;;;;;;5058536;28;20540;-63
2023/09/17 03:45:13;;;;;;;7.53;4.53;;;14.00;99.90;;;;;;5050056;28;20460;-63
2023/09/17 03:47:42;;;;;;;9.70;4.95;;;14.10;99.90;;;;;;5050449;28;20049;-63
2023/09/17 03:50:13;;;;;;;8.25;4.93;;;14.00;99.90;;;;;;5065567;28;20402;-63
2023/09/17 03:52:45;;;;;;;9.35;4.70;;;13.90;99.90;;;;;;5070037;28;20044;-63
2023/09/17 03:55:13;;;;;;;9.27;4.43;;;13.80;99.90;;;;;;5061924;28;20123;-63
2023/09/17 03:57:40;;;;;;;11.23;4.70;;;13.80;99.90;;;;;;5064386;28;20032;-63
2023/09/17 04:00:10;;;;;;;8.23;4.40;;;13.70;99.90;;;;;;5070225;28;20068;-63
2023/09/17 04:02:42;;;;;;;9.88;5.18;;;13.70;99.90;;;;;;5053799;28;20040;-63
2023/09/17 04:05:14;;;;;;;7.15;4.70;;;13.70;99.90;;;;;;5070179;28;20405;-63
2023/09/17 04:07:43;;;;;;;8.40;4.47;;;13.70;99.90;;;;;;5061785;28;20047;-63
2023/09/17 04:10:12;;;;;;;7.75;4.57;;;13.60;99.90;;;;;;5061870;28;20043;-64
2023/09/17 04:12:40;;;;;;;8.20;5.18;;;13.60;99.90;;;;;;5064190;28;20556;-64
2023/09/17 04:15:13;;;;;;;9.75;5.10;;;13.60;99.90;;;;;;5053674;28;20043;-63
2023/09/17 04:17:40;;;;;;;6.43;4.60;;;13.50;99.90;;;;;;5062473;28;20056;-63
2023/09/17 04:20:13;;;;;;;7.13;5.00;;;13.50;99.90;;;;;;5062842;28;20045;-63
2023/09/17 04:22:42;;;;;;;4.63;3.63;;;13.40;99.90;;;;;;5071021;28;20046;-63
2023/09/17 04:25:09;;;;;;;8.02;4.40;;;13.40;99.90;;;;;;5061917;28;20032;-63
2023/09/17 04:27:41;;;;;;;9.15;4.18;;;13.30;99.90;;;;;;5069815;28;20588;-63
2023/09/17 04:30:13;;;;;;;6.32;3.85;;;13.30;99.90;;;;;;5062597;28;20128;-64
2023/09/17 04:32:42;;;;;;;7.25;4.20;;;13.30;99.90;;;;;;5067485;28;20397;-63
2023/09/17 04:35:11;;;;;;;9.13;4.30;;;13.30;99.90;;;;;;5061694;28;20098;-63
2023/09/17 04:37:40;;;;;;;6.47;4.30;;;13.30;99.90;;;;;;5069273;28;20049;-64
2023/09/17 04:40:09;;;;;;;7.53;4.50;;;13.30;99.90;;;;;;5064678;28;20052;-63
2023/09/17 04:42:38;;;;;;;6.72;4.13;;;13.30;99.90;;;;;;5068825;28;20095;-63
2023/09/17 04:45:08;;;;;;;8.15;4.78;;;13.30;99.90;;;;;;5069784;28;20435;-63
2023/09/17 04:47:38;;;;;;;7.63;4.10;;;13.40;99.90;;;;;;5061931;28;20063;-63
2023/09/17 04:50:08;;;;;;;10.30;4.40;;;13.30;99.90;;;;;;5069511;28;20729;-63
2023/09/17 04:52:36;;;;;;;7.68;4.30;;;13.30;99.90;;;;;;5061176;28;20032;-63
2023/09/17 04:55:05;;;;;;;8.55;4.25;;;13.30;99.90;;;;;;5061597;28;20047;-64
2023/09/17 04:57:33;;;;;;;7.85;3.95;;;13.30;99.90;;;;;;5060783;28;20048;-64
2023/09/17 05:00:10;;;;;;;7.45;4.47;;;13.20;99.90;;;;;;5068686;28;20127;-63
2023/09/17 05:02:41;;;;;;;6.53;4.20;;;13.20;99.90;;;;;;5068537;28;20068;-63
2023/09/17 05:05:10;;;;;;;8.20;4.97;;;13.10;99.90;;;;;;5064417;28;20056;-63
2023/09/17 05:07:41;;;;;;;8.35;4.00;;;13.20;99.90;;;;;;5068176;28;20062;-63
2023/09/17 05:10:08;;;;;;;6.93;4.45;;;13.20;99.90;;;;;;5066581;28;20476;-63
2023/09/17 05:12:36;;;;;;;6.82;4.63;;;13.20;99.90;;;;;;5070367;28;20036;-63
2023/09/17 05:15:03;;;;;;;5.60;4.47;;;13.30;99.90;;;;;;5072163;28;20049;-63
2023/09/17 05:17:31;;;;;;;6.50;4.38;;;13.30;99.90;;;;;;5056757;28;20099;-63
2023/09/17 05:19:57;;;;;;;8.50;4.68;;;13.30;99.90;;;;;;5064918;28;20041;-63
2023/09/17 05:22:24;;;;;;;6.93;4.75;;;13.30;99.90;;;;;;5065624;28;20056;-64
2023/09/17 05:24:51;;;;;;;8.23;4.40;;;13.40;99.90;;;;;;5057690;28;20144;-63
2023/09/17 05:27:19;;;;;;;7.68;4.80;;;13.40;99.90;;;;;;5066809;28;20044;-63
2023/09/17 05:29:46;;;;;;;;;;;13.50;99.90;;;;;;5074045;28;20699;-63
2023/09/17 05:32:13;;;;;;;7.10;5.05;;;13.50;99.90;;;;;;5070296;28;20070;-63
2023/09/17 05:34:40;;;;;;;;;;;13.50;99.90;;;;;;5072189;28;20040;-63
2023/09/17 05:37:07;;;;;;;5.28;4.07;;;13.60;99.90;;;;;;5063837;28;20414;-63
2023/09/17 05:39:34;;;;;;;;;;;13.60;99.90;;;;;;5074555;28;20036;-64
2023/09/17 05:42:01;;;;;;;9.45;4.53;;;13.60;99.90;;;;;;5062232;28;20594;-64
2023/09/17 05:44:28;;;;;;;6.47;3.97;;;13.70;99.90;;;;;;5061325;28;20482;-64
2023/09/17 05:46:55;;;;;;;6.57;3.70;;;13.70;99.90;;;;;;5062386;28;20037;-63
2023/09/17 05:49:21;;;;;;;9.77;4.82;;;13.80;99.90;;;;;;5060993;28;20547;-63
2023/09/17 05:51:48;;;;;;;5.47;4.20;;;13.70;99.90;;;;;;5071008;28;20048;-63
2023/09/17 05:54:16;;;;;;;;;;;13.70;99.90;;;;;;5060765;28;20141;-64
2023/09/17 05:56:43;;;;;;;8.63;5.05;;;13.60;99.90;;;;;;5071250;28;19920;-63
2023/09/17 05:59:10;;;;;;;8.50;5.20;;;13.70;99.90;;;;;;5063302;28;20135;-63
2023/09/17 06:01:37;;;;;;;10.48;5.30;;;13.70;99.90;;;;;;5072263;28;20063;-63
2023/09/17 06:04:04;;;;;;;9.73;5.50;;;13.70;99.90;;;;;;5065891;28;20094;-63
2023/09/17 06:06:31;;;;;;;9.57;5.45;;;13.80;99.90;;;;;;5071950;28;20448;-64
2023/09/17 06:08:59;;;;;;;8.57;5.68;;;13.80;99.90;;;;;;5072430;28;20043;-64
2023/09/17 06:11:26;;;;;;;9.38;5.05;;;13.90;99.90;;;;;;5070747;28;20128;-63
2023/09/17 06:13:53;;;;;;;10.20;6.10;;;13.90;99.90;;;;;;5064270;28;20044;-63
2023/09/17 06:16:21;;;;;;;14.43;5.97;;;14.00;99.90;;;;;;5066997;28;20378;-63
2023/09/17 06:18:48;;;;;;;8.18;5.20;;;14.00;99.90;;;;;;5071083;28;20040;-63
2023/09/17 06:21:15;;;;;;;11.02;5.63;;;14.10;99.90;;;;;;5073223;28;20443;-63
2023/09/17 06:23:41;;;;;;;9.50;5.30;;;14.10;99.90;;;;;;5071940;28;20131;-63
2023/09/17 06:26:08;;;;;;;10.70;5.60;;;14.30;99.90;;;;;;5067524;28;20045;-63
2023/09/17 06:28:36;;;;;;;9.82;6.05;;;14.40;99.90;;;;;;5063468;28;20139;-63
2023/09/17 06:31:03;;;;;;;7.13;5.07;;;14.60;99.90;;;;;;5070242;28;20052;-63
2023/09/17 06:33:30;;;;;;;7.88;5.82;;;14.70;99.90;;;;;;5071577;28;20604;-63
2023/09/17 06:35:57;;;;;;;10.35;5.95;;;14.90;99.90;;;;;;5062607;28;20077;-63
2023/09/17 06:38:24;;;;;;;7.72;5.05;;;15.10;99.90;;;;;;5059041;28;20497;-64
2023/09/17 06:40:52;;;;;;;8.98;5.30;;;15.10;99.90;;;;;;5069821;28;20056;-63
2023/09/17 06:43:18;;;;;;;7.13;4.97;;;15.40;99.90;;;;;;5071183;28;20064;-63
2023/09/17 06:45:45;;;;;;;7.88;5.03;;;15.60;99.90;;;;;;5071591;28;20041;-63
2023/09/17 06:48:12;;;;;;;7.40;4.43;;;15.80;99.90;;;;;;5072883;28;20044;-63
2023/09/17 06:50:39;;;;;;;7.30;4.70;;;16.00;99.90;;;;;;5065555;28;20048;-63
2023/09/17 06:53:06;;;;;;;10.50;4.70;;;16.20;99.90;;;;;;5072841;28;20392;-63
2023/09/17 06:55:34;;;;;;;5.82;4.60;;;16.40;99.90;;;;;;5072399;28;20044;-63
2023/09/17 06:58:01;;;;;;;7.75;4.93;;;16.70;99.90;;;;;;5064352;28;20051;-64
2023/09/17 07:00:27;;;;;;;8.73;3.92;;;17.00;99.90;;;;;;5068746;28;20048;-63
2023/09/17 07:02:54;;;;;;;5.90;4.50;;;17.10;99.90;;;;;;5071925;28;20048;-63
2023/09/17 07:05:21;;;;;;;;;;;17.10;99.90;;;;;;5066456;28;20600;-63
2023/09/17 07:07:48;;;;;;;5.25;4.22;;;17.40;99.90;;;;;;5068282;28;19924;-64
2023/09/17 07:10:15;;;;;;;5.00;4.18;;;17.60;99.90;;;;;;5071581;28;20103;-63
2023/09/17 07:12:43;;;;;;;6.30;4.10;;;17.60;99.90;;;;;;5071210;28;20044;-63
2023/09/17 07:15:11;;;;;;;7.03;4.50;;;17.70;99.90;;;;;;5069538;28;20044;-63
2023/09/17 07:17:39;;;;;;;8.48;4.95;;;17.50;99.90;;;;;;5072287;28;20120;-63
2023/09/17 07:20:07;;;;;;;6.55;4.55;;;17.40;99.90;;;;;;5071958;28;20473;-63
2023/09/17 07:22:34;;;;;;;7.18;4.10;;;17.30;99.90;;;;;;5068725;28;20045;-63
2023/09/17 07:25:04;;;;;;;5.70;4.20;;;17.20;99.90;;;;;;5064249;28;20370;-63
2023/09/17 07:27:32;;;;;;;4.65;4.07;;;17.20;99.90;;;;;;5071993;28;20090;-64
2023/09/17 07:29:58;;;;;;;6.28;4.45;;;17.20;99.90;;;;;;5066830;28;20036;-63
2023/09/17 07:32:29;;;;;;;5.78;4.03;;;17.30;99.90;;;;;;5061706;28;20036;-63
2023/09/17 07:34:56;;;;;;;7.80;5.15;;;17.40;99.90;;;;;;5061101;28;20110;-63
2023/09/17 07:37:23;;;;;;;7.40;4.43;;;17.50;99.90;;;;;;5053834;28;20064;-63
2023/09/17 07:40:05;;;;;;;6.03;3.80;;;17.60;99.90;;;;;;5051690;28;20118;-63
2023/09/17 07:42:31;;;;;;;6.75;3.90;;;17.70;99.90;;;;;;5051459;28;20036;-64
2023/09/17 07:44:58;;;;;;;5.90;4.07;;;17.80;99.90;;;;;;5056812;28;20033;-63
2023/09/17 07:47:25;;;;;;;5.15;3.42;;;18.00;99.90;;;;;;5059496;28;20503;-63
2023/09/17 07:49:52;;;;;;;5.82;4.10;;;18.10;99.90;;;;;;5060504;28;20450;-64
2023/09/17 07:52:18;;;;;;;7.88;4.65;;;18.30;99.90;;;;;;5059862;28;20047;-63
2023/09/17 07:54:45;;;;;;;6.60;4.28;;;18.40;99.90;;;;;;5058925;28;20040;-63
2023/09/17 07:57:13;;;;;;;6.35;3.90;;;18.40;99.90;;;;;;5060171;28;20401;-63
2023/09/17 07:59:39;;;;;;;6.53;3.72;;;18.50;99.90;;;;;;5058363;28;20056;-64
2023/09/17 08:02:07;;;;;;;5.40;4.63;;;18.60;99.90;;;;;;5055354;28;20044;-63
2023/09/17 08:04:34;;;;;;;7.28;4.07;;;18.60;99.90;;;;;;5058172;28;20452;-64
2023/09/17 08:07:02;;;;;;;5.63;4.07;;;18.70;99.90;;;;;;5058891;28;20117;-63
2023/09/17 08:09:29;;;;;;;7.80;4.60;;;18.80;99.90;;;;;;5069105;28;20481;-63
2023/09/17 08:11:56;;;;;;;9.43;4.32;;;19.00;99.90;;;;;;5064441;28;20060;-64
2023/09/17 08:14:25;;;;;;;5.85;4.30;;;19.10;99.90;;;;;;5062085;28;20045;-64
2023/09/17 08:16:52;;;;;;;6.35;4.35;;;19.20;99.90;;;;;;5061747;28;20061;-63
2023/09/17 08:19:19;;;;;;;5.85;4.45;;;19.30;99.90;;;;;;5059028;28;20102;-63
2023/09/17 08:21:46;;;;;;;;;;;19.30;99.90;;;;;;5063086;28;20394;-63
2023/09/17 08:24:14;;;;;;;4.65;4.00;;;19.40;99.90;;;;;;5061947;28;19982;-64
2023/09/17 08:26:41;;;;;;;5.82;4.32;;;19.50;99.90;;;;;;5062738;28;20552;-64
2023/09/17 08:29:09;;;;;;;6.43;4.25;;;19.50;99.90;;;;;;5062436;28;20056;-64
2023/09/17 08:31:36;;;;;;;5.95;4.38;;;19.70;99.90;;;;;;5063923;28;20074;-64
2023/09/17 08:34:03;;;;;;;5.22;4.07;;;19.80;99.90;;;;;;5062407;28;20047;-64
2023/09/17 08:36:32;;;;;;;5.43;4.07;;;19.80;99.90;;;;;;5062327;28;20037;-64
2023/09/17 08:38:59;;;;;;;9.77;4.10;;;19.80;99.90;;;;;;5066285;28;20040;-63
2023/09/17 08:41:26;;;;;;;7.43;4.53;;;19.80;99.90;;;;;;5065260;28;20083;-63
2023/09/17 08:43:53;;;;;;;7.13;4.40;;;19.80;99.90;;;;;;5075172;28;20473;-64
2023/09/17 08:46:23;;;;;;;5.68;4.03;;;19.70;99.90;;;;;;5068722;28;20112;-64
2023/09/17 08:48:53;;;;;;;6.75;4.25;;;19.70;99.90;;;;;;5072936;28;20045;-63
2023/09/17 08:51:24;;;;;;;6.50;3.60;;;19.60;99.90;;;;;;5074628;28;20477;-63
2023/09/17 08:54:06;;;;;;;4.95;4.25;;;19.60;99.90;;;;;;5073881;28;20760;-64
2023/09/17 08:56:35;;;;;;;7.65;4.80;;;19.60;99.90;;;;;;5075258;28;20041;-64
2023/09/17 08:59:10;;;;;;;6.25;4.35;;;19.50;99.90;;;;;;5074741;28;20052;-63
2023/09/17 09:01:39;;;;;;;5.88;4.13;;;19.50;99.90;;;;;;5066509;28;20036;-64
2023/09/17 09:04:08;;;;;;;7.22;4.32;;;19.60;99.90;;;;;;5066103;28;20033;-62
2023/09/17 09:06:36;;;;;;;5.45;4.03;;;19.70;99.90;;;;;;5074559;28;20033;-64
2023/09/17 09:09:07;;;;;;;4.95;3.90;;;19.90;99.90;;;;;;5074286;28;20036;-63
2023/09/17 09:11:34;;;;;;;4.35;3.95;;;20.30;99.90;;;;;;5072306;28;20041;-64
2023/09/17 09:14:03;;;;;;;;;;;20.70;99.90;;;;;;5062495;28;20480;-64
2023/09/17 09:16:33;;;;;;;4.97;4.00;;;21.00;99.90;;;;;;5063870;28;19927;-63
2023/09/17 09:19:00;;;;;;;6.32;4.15;;;21.10;99.90;;;;;;5074392;28;20485;-63
2023/09/17 09:21:30;;;;;;;5.43;3.88;;;21.20;99.90;;;;;;5074054;28;20040;-64
2023/09/17 09:23:57;;;;;;;18.52;12.98;;;21.30;99.90;;;;;;5074498;28;20144;-63
2023/09/17 09:26:38;;;;;;;21.02;13.80;;;21.50;99.90;;;;;;5072657;28;20120;-63
2023/09/17 09:29:06;;;;;;;4.40;3.95;;;21.60;99.90;;;;;;5072342;28;20056;-63
2023/09/17 09:31:34;;;;;;;5.22;4.18;;;21.60;99.90;;;;;;5058312;28;20401;-63
2023/09/17 09:34:02;;;;;;;5.32;3.78;;;21.70;99.90;;;;;;5056932;28;20049;-63
2023/09/17 09:36:32;;;;;;;4.45;4.05;;;21.60;99.90;;;;;;5067490;28;20489;-63
2023/09/17 09:39:01;;;;;;;4.97;3.90;;;21.80;99.90;;;;;;5063921;28;20045;-63
2023/09/17 09:41:29;;;;;;;7.10;4.10;;;21.90;99.90;;;;;;5061886;28;20464;-63
2023/09/17 09:43:56;;;;;;;7.20;3.70;;;22.10;99.90;;;;;;5062186;28;20389;-64
2023/09/17 09:46:28;;;;;;;8.70;4.07;;;22.20;99.90;;;;;;5064257;28;20065;-63
2023/09/17 09:49:00;;;;;;;7.15;3.95;;;22.20;99.90;;;;;;5059582;28;20049;-62
2023/09/17 09:51:29;;;;;;;5.93;4.13;;;22.30;99.90;;;;;;5060997;28;20063;-64
2023/09/17 09:53:56;;;;;;;4.88;3.75;;;22.30;99.90;;;;;;5057820;28;20037;-63
2023/09/17 09:56:27;;;;;;;5.10;4.07;;;22.30;99.90;;;;;;5065144;28;20037;-64
2023/09/17 09:58:56;;;;;;;5.25;3.58;;;22.40;99.90;;;;;;5060618;28;20772;-64
2023/09/17 10:01:23;;;;;;;6.10;4.43;;;22.60;99.90;;;;;;5061627;28;20040;-64
2023/09/17 10:03:50;;;;;;;9.23;4.40;;;22.60;99.90;;;;;;5062724;28;20048;-64
2023/09/17 10:06:19;;;;;;;4.43;4.03;;;22.40;99.90;;;;;;5069814;28;20040;-64
2023/09/17 10:08:46;;;;;;;5.75;4.60;;;22.10;99.90;;;;;;5060276;28;20565;-64
2023/09/17 10:11:14;;;;;;;8.20;4.28;;;22.00;99.90;;;;;;5057897;28;20040;-64
2023/09/17 10:13:42;;;;;;;8.32;4.85;;;22.10;99.90;;;;;;5062259;28;20400;-64
2023/09/17 10:16:09;;;;;;;12.02;4.55;;;22.30;99.90;;;;;;5062082;28;20501;-63
2023/09/17 10:18:38;;;;;;;6.70;4.35;;;22.00;99.90;;;;;;5063931;28;20119;-64
2023/09/17 10:21:05;;;;;;;6.25;4.45;;;22.20;99.90;;;;;;5056689;28;20033;-64
2023/09/17 10:23:34;;;;;;;6.10;4.00;;;22.20;99.90;;;;;;5059334;28;20099;-64
2023/09/17 10:26:03;;;;;;;5.60;4.28;;;22.40;99.90;;;;;;5057908;28;20068;-64
2023/09/17 10:28:32;;;;;;;7.38;4.03;;;22.60;99.90;;;;;;5060230;28;20056;-64
2023/09/17 10:31:00;;;;;;;5.63;4.57;;;22.50;99.90;;;;;;5061382;28;20037;-64
2023/09/17 10:33:31;;;;;;;8.82;4.28;;;22.50;99.90;;;;;;5070091;28;20040;-64
2023/09/17 10:35:59;;;;;;;4.75;4.32;;;22.60;99.90;;;;;;5062880;28;20045;-64
2023/09/17 10:38:30;;;;;;;6.30;4.40;;;22.60;99.90;;;;;;5060755;28;20497;-64
2023/09/17 10:40:58;;;;;;;5.57;4.20;;;22.70;99.90;;;;;;5058058;28;20053;-64
2023/09/17 10:43:25;;;;;;;6.45;4.20;;;22.70;99.90;;;;;;5059446;28;20048;-64
2023/09/17 10:45:55;;;;;;;5.30;3.97;;;23.00;99.90;;;;;;5056954;28;20056;-63
2023/09/17 10:48:24;;;;;;;4.72;4.25;;;23.10;99.90;;;;;;5061834;28;20056;-64
2023/09/17 10:50:52;;;;;;;9.52;4.50;;;23.20;99.90;;;;;;5060325;28;20044;-64
2023/09/17 10:53:19;;;;;;;6.00;4.43;;;23.10;99.90;;;;;;5063667;28;20044;-64
2023/09/17 10:55:54;;;;;;;4.60;3.90;;;23.20;99.90;;;;;;5060749;28;20045;-64
2023/09/17 10:58:27;;;;;;;6.38;4.38;;;23.40;99.90;;;;;;5056841;28;20053;-64
2023/09/17 11:00:56;;;;;;;6.20;4.18;;;23.40;99.90;;;;;;5060822;28;20490;-64
2023/09/17 11:03:26;;;;;;;7.55;4.10;;;23.50;99.90;;;;;;5065610;28;20048;-64
2023/09/17 11:05:56;;;;;;;5.35;4.10;;;23.60;99.90;;;;;;5055125;28;20076;-63
2023/09/17 11:08:23;;;;;;;5.80;4.32;;;23.60;99.90;;;;;;5066802;28;20033;-63
2023/09/17 11:10:50;;;;;;;5.85;4.53;;;23.70;99.90;;;;;;5056942;28;20041;-64
2023/09/17 11:13:19;;;;;;;6.28;4.45;;;23.90;99.90;;;;;;5052792;28;20494;-63
2023/09/17 11:15:48;;;;;;;5.95;4.13;;;23.90;99.90;;;;;;5058675;28;20040;-64
2023/09/17 11:18:17;;;;;;;6.88;4.28;;;24.00;99.90;;;;;;5051892;28;20498;-64
2023/09/17 11:20:58;;;;;;;4.43;4.03;;;24.00;99.90;;;;;;5059709;28;20082;-63
2023/09/17 11:23:44;;;;;;;6.50;4.50;;;23.90;99.90;;;;;;5059562;28;20037;-63
2023/09/17 11:26:19;;;;;;;5.35;4.25;;;24.00;99.90;;;;;;5060814;28;20047;-63
2023/09/17 11:28:53;;;;;;;3.97;3.40;;;24.20;99.90;;;;;;5058106;28;20036;-63
2023/09/17 11:31:20;;;;;;;5.47;3.78;;;24.20;99.90;;;;;;5051755;28;20481;-64
2023/09/17 11:33:48;;;;;;;6.25;3.78;;;24.20;99.90;;;;;;5060247;28;20432;-64
2023/09/17 11:36:16;;;;;;;5.68;3.78;;;24.40;99.90;;;;;;5054204;28;20502;-64
2023/09/17 11:38:47;;;;;;;7.03;4.03;;;24.40;99.90;;;;;;5056415;28;20505;-63
2023/09/17 11:41:16;;;;;;;7.15;4.00;;;24.60;99.90;;;;;;5054494;28;20048;-64
2023/09/17 11:43:51;;;;;;;4.30;3.90;;;24.60;99.90;;;;;;5058397;28;20033;-64
2023/09/17 11:46:18;;;;;;;4.30;3.83;;;24.60;99.90;;;;;;5051820;28;20049;-64
2023/09/17 11:48:45;;;;;;;3.65;3.17;;;24.60;99.90;;;;;;5059138;28;20049;-64
2023/09/17 11:51:20;;;;;;;4.97;3.60;;;24.60;99.90;;;;;;5057291;28;20052;-64
2023/09/17 11:54:05;;;;;;;4.80;3.35;;;24.80;99.90;;;;;;5055705;28;20035;-64
2023/09/17 11:56:33;;;;;;;6.10;3.55;;;24.90;99.90;;;;;;5060537;28;20036;-64
2023/09/17 11:59:04;;;;;;;5.30;3.55;;;25.00;99.90;;;;;;5054147;28;20433;-64
2023/09/17 12:01:52;;;;;;;4.35;3.75;;;25.30;99.90;;;;;;5053679;28;20036;-63
2023/09/17 12:04:25;;;;;;;3.72;3.28;;;25.30;99.90;;;;;;5049583;28;20098;-63
2023/09/17 12:06:53;;;;;;;4.38;3.53;;;25.30;99.90;;;;;;5049725;28;20052;-64
2023/09/17 12:09:24;;;;;;;3.53;3.13;;;25.40;99.90;;;;;;5050640;28;20037;-64
2023/09/17 12:11:51;;;;;;;5.10;3.60;;;25.40;99.90;;;;;;5050661;28;20409;-64
2023/09/17 12:14:19;;;;;;;4.47;3.30;;;25.60;99.90;;;;;;5050696;28;20045;-64
2023/09/17 12:16:50;;;;;;;4.35;3.08;;;25.70;99.90;;;;;;5051234;28;20041;-64
2023/09/17 12:19:18;;;;;;;6.22;2.95;;;25.80;99.90;;;;;;5051151;28;20048;-64
2023/09/17 12:21:47;;;;;;;3.60;3.30;;;26.00;99.90;;;;;;5050967;28;20099;-64
2023/09/17 12:24:23;;;;;;;5.68;3.13;;;26.00;99.90;;;;;;5055104;28;20051;-64
2023/09/17 12:27:34;;;;;;;4.95;2.95;;;25.90;99.90;;;;;;5051164;28;20098;-64
2023/09/17 12:30:08;;;;;;;4.10;3.00;;;25.80;99.90;;;;;;5050900;28;20493;-64
2023/09/17 12:32:36;;;;;;;4.18;2.97;;;25.90;99.90;;;;;;5049295;28;20044;-64
2023/09/17 12:35:05;;;;;;;5.45;2.97;;;26.00;99.90;;;;;;5059232;28;20032;-64
2023/09/17 12:37:32;;;;;;;3.83;3.28;;;26.10;99.90;;;;;;5062955;28;20074;-64
2023/09/17 12:39:59;;;;;;;;;;;26.20;99.90;;;;;;5059041;28;20033;-63
2023/09/17 12:42:26;;;;;;;5.30;2.85;;;26.30;99.90;;;;;;5058926;28;19928;-64
2023/09/17 12:44:53;;;;;;;6.35;3.03;;;26.30;99.90;;;;;;5056784;28;20032;-64
2023/09/17 12:47:21;;;;;;;3.10;2.80;;;26.40;99.90;;;;;;5052682;28;20115;-63
2023/09/17 12:49:48;;;;;;;3.10;2.75;;;26.60;99.90;;;;;;5058130;28;20440;-64
2023/09/17 12:52:15;;;;;;;3.72;2.97;;;26.60;99.90;;;;;;5051788;28;20045;-64
2023/09/17 12:54:42;;;;;;;5.55;3.30;;;26.50;99.90;;;;;;5063751;28;20056;-64
2023/09/17 12:57:09;;;;;;;3.35;2.90;;;26.40;99.90;;;;;;5050605;28;20463;-64
2023/09/17 12:59:37;;;;;;;;;;;26.30;99.90;;;;;;5051033;28;20048;-64